sensor_id;sensor_type;location;lat;lon;timestamp;P1;durP1;ratioP1;P2;durP2;ratioP2
75537;SDS011;64121;48.666;8.114;2023-02-08T00:01:08;11.77;;;7.75;;
75537;SDS011;64121;48.666;8.114;2023-02-08T00:03:34;14.35;;;7.65;;
75537;SDS011;64121;48.666;8.114;2023-02-08T00:06:00;8.55;;;6.90;;
75537;SDS011;64121;48.666;8.114;2023-02-08T00:08:26;10.65;;;7.55;;
75537;SDS011;64121;48.666;8.114;2023-02-08T00:10:52;11.57;;;7.40;;
75537;SDS011;64121;48.666;8.114;2023-02-08T00:13:17;14.13;;;8.85;;
75537;SDS011;64121;48.666;8.114;2023-02-08T00:15:44;14.77;;;8.88;;
75537;SDS011;64121;48.666;8.114;2023-02-08T00:18:10;15.50;;;9.07;;
75537;SDS011;64121;48.666;8.114;2023-02-08T00:20:36;16.00;;;8.25;;
75537;SDS011;64121;48.666;8.114;2023-02-08T00:23:02;15.70;;;8.45;;
75537;SDS011;64121;48.666;8.114;2023-02-08T00:25:29;15.52;;;8.93;;
75537;SDS011;64121;48.666;8.114;2023-02-08T00:27:54;13.57;;;8.70;;
75537;SDS011;64121;48.666;8.114;2023-02-08T00:30:19;16.52;;;9.13;;
75537;SDS011;64121;48.666;8.114;2023-02-08T00:32:45;15.30;;;8.65;;
75537;SDS011;64121;48.666;8.114;2023-02-08T00:35:10;11.52;;;8.68;;
75537;SDS011;64121;48.666;8.114;2023-02-08T00:37:35;13.05;;;8.15;;
75537;SDS011;64121;48.666;8.114;2023-02-08T00:40:01;12.90;;;8.43;;
75537;SDS011;64121;48.666;8.114;2023-02-08T00:42:27;11.80;;;8.63;;
75537;SDS011;64121;48.666;8.114;2023-02-08T00:44:53;9.73;;;6.80;;
75537;SDS011;64121;48.666;8.114;2023-02-08T00:47:18;12.38;;;8.27;;
75537;SDS011;64121;48.666;8.114;2023-02-08T00:49:43;13.23;;;8.50;;
75537;SDS011;64121;48.666;8.114;2023-02-08T00:52:09;10.38;;;7.20;;
75537;SDS011;64121;48.666;8.114;2023-02-08T00:54:34;12.88;;;8.50;;
75537;SDS011;64121;48.666;8.114;2023-02-08T00:56:59;12.27;;;9.13;;
75537;SDS011;64121;48.666;8.114;2023-02-08T00:59:26;17.27;;;8.70;;
75537;SDS011;64121;48.666;8.114;2023-02-08T01:01:52;11.57;;;7.78;;
75537;SDS011;64121;48.666;8.114;2023-02-08T01:04:17;14.20;;;8.70;;
75537;SDS011;64121;48.666;8.114;2023-02-08T01:06:42;13.05;;;8.65;;
75537;SDS011;64121;48.666;8.114;2023-02-08T01:09:08;11.85;;;7.18;;
75537;SDS011;64121;48.666;8.114;2023-02-08T01:11:33;12.55;;;7.78;;
75537;SDS011;64121;48.666;8.114;2023-02-08T01:13:58;15.15;;;7.50;;
75537;SDS011;64121;48.666;8.114;2023-02-08T01:16:26;12.40;;;7.40;;
75537;SDS011;64121;48.666;8.114;2023-02-08T01:18:55;13.05;;;7.53;;
75537;SDS011;64121;48.666;8.114;2023-02-08T01:21:22;12.88;;;7.78;;
75537;SDS011;64121;48.666;8.114;2023-02-08T01:23:48;12.02;;;8.18;;
75537;SDS011;64121;48.666;8.114;2023-02-08T01:26:14;14.73;;;8.07;;
75537;SDS011;64121;48.666;8.114;2023-02-08T01:28:41;12.05;;;7.80;;
75537;SDS011;64121;48.666;8.114;2023-02-08T01:31:08;16.08;;;8.75;;
75537;SDS011;64121;48.666;8.114;2023-02-08T01:33:36;14.48;;;8.63;;
75537;SDS011;64121;48.666;8.114;2023-02-08T01:36:01;12.70;;;7.72;;
75537;SDS011;64121;48.666;8.114;2023-02-08T01:38:27;15.90;;;8.38;;
75537;SDS011;64121;48.666;8.114;2023-02-08T01:40:53;12.70;;;8.27;;
75537;SDS011;64121;48.666;8.114;2023-02-08T01:43:19;11.52;;;6.72;;
75537;SDS011;64121;48.666;8.114;2023-02-08T01:45:47;15.75;;;9.07;;
75537;SDS011;64121;48.666;8.114;2023-02-08T01:48:14;12.38;;;7.35;;
75537;SDS011;64121;48.666;8.114;2023-02-08T01:50:47;12.55;;;7.75;;
75537;SDS011;64121;48.666;8.114;2023-02-08T01:53:17;11.27;;;7.32;;
75537;SDS011;64121;48.666;8.114;2023-02-08T01:55:44;13.02;;;7.68;;
75537;SDS011;64121;48.666;8.114;2023-02-08T01:58:12;11.32;;;7.18;;
75537;SDS011;64121;48.666;8.114;2023-02-08T02:00:39;12.35;;;7.07;;
75537;SDS011;64121;48.666;8.114;2023-02-08T02:03:04;11.40;;;7.32;;
75537;SDS011;64121;48.666;8.114;2023-02-08T02:05:31;10.35;;;7.30;;
75537;SDS011;64121;48.666;8.114;2023-02-08T02:08:03;12.27;;;7.35;;
75537;SDS011;64121;48.666;8.114;2023-02-08T02:10:30;11.50;;;7.15;;
75537;SDS011;64121;48.666;8.114;2023-02-08T02:13:00;10.07;;;6.82;;
75537;SDS011;64121;48.666;8.114;2023-02-08T02:15:28;14.90;;;7.55;;
75537;SDS011;64121;48.666;8.114;2023-02-08T02:17:53;9.48;;;7.00;;
75537;SDS011;64121;48.666;8.114;2023-02-08T02:20:21;13.45;;;7.40;;
75537;SDS011;64121;48.666;8.114;2023-02-08T02:29:20;9.65;;;6.05;;
75537;SDS011;64121;48.666;8.114;2023-02-08T02:32:07;12.38;;;6.85;;
75537;SDS011;64121;48.666;8.114;2023-02-08T02:34:39;10.48;;;6.03;;
75537;SDS011;64121;48.666;8.114;2023-02-08T02:37:11;10.27;;;6.07;;
75537;SDS011;64121;48.666;8.114;2023-02-08T02:39:49;12.10;;;7.05;;
75537;SDS011;64121;48.666;8.114;2023-02-08T02:42:22;12.25;;;7.38;;
75537;SDS011;64121;48.666;8.114;2023-02-08T02:44:53;12.63;;;6.75;;
75537;SDS011;64121;48.666;8.114;2023-02-08T02:47:30;15.88;;;8.52;;
75537;SDS011;64121;48.666;8.114;2023-02-08T02:50:05;11.77;;;7.50;;
75537;SDS011;64121;48.666;8.114;2023-02-08T02:52:39;11.02;;;7.28;;
75537;SDS011;64121;48.666;8.114;2023-02-08T02:55:09;11.50;;;6.50;;
75537;SDS011;64121;48.666;8.114;2023-02-08T02:57:38;14.07;;;7.47;;
75537;SDS011;64121;48.666;8.114;2023-02-08T03:00:07;13.75;;;7.95;;
75537;SDS011;64121;48.666;8.114;2023-02-08T03:02:35;10.77;;;6.80;;
75537;SDS011;64121;48.666;8.114;2023-02-08T03:05:01;12.07;;;6.95;;
75537;SDS011;64121;48.666;8.114;2023-02-08T03:10:28;10.35;;;6.82;;
75537;SDS011;64121;48.666;8.114;2023-02-08T03:13:06;10.20;;;6.15;;
75537;SDS011;64121;48.666;8.114;2023-02-08T03:15:45;16.00;;;8.48;;
75537;SDS011;64121;48.666;8.114;2023-02-08T03:18:29;11.70;;;6.75;;
75537;SDS011;64121;48.666;8.114;2023-02-08T03:21:01;12.73;;;7.22;;
75537;SDS011;64121;48.666;8.114;2023-02-08T03:23:35;13.33;;;7.00;;
75537;SDS011;64121;48.666;8.114;2023-02-08T03:26:06;11.45;;;6.78;;
75537;SDS011;64121;48.666;8.114;2023-02-08T03:28:40;11.18;;;6.70;;
75537;SDS011;64121;48.666;8.114;2023-02-08T03:31:14;12.30;;;6.43;;
75537;SDS011;64121;48.666;8.114;2023-02-08T03:33:48;12.77;;;7.32;;
75537;SDS011;64121;48.666;8.114;2023-02-08T03:36:19;12.20;;;7.45;;
75537;SDS011;64121;48.666;8.114;2023-02-08T03:38:50;11.55;;;7.60;;
75537;SDS011;64121;48.666;8.114;2023-02-08T03:41:20;11.52;;;7.40;;
75537;SDS011;64121;48.666;8.114;2023-02-08T03:43:49;11.52;;;7.63;;
75537;SDS011;64121;48.666;8.114;2023-02-08T03:46:21;12.20;;;7.07;;
75537;SDS011;64121;48.666;8.114;2023-02-08T03:48:53;10.77;;;6.68;;
75537;SDS011;64121;48.666;8.114;2023-02-08T03:51:21;11.35;;;7.15;;
75537;SDS011;64121;48.666;8.114;2023-02-08T03:53:48;10.95;;;7.00;;
75537;SDS011;64121;48.666;8.114;2023-02-08T03:56:17;11.52;;;7.40;;
75537;SDS011;64121;48.666;8.114;2023-02-08T03:58:47;9.77;;;6.65;;
75537;SDS011;64121;48.666;8.114;2023-02-08T04:01:25;9.82;;;6.85;;
75537;SDS011;64121;48.666;8.114;2023-02-08T04:03:55;10.32;;;6.03;;
75537;SDS011;64121;48.666;8.114;2023-02-08T04:06:22;9.85;;;6.63;;
75537;SDS011;64121;48.666;8.114;2023-02-08T04:08:47;9.50;;;6.68;;
75537;SDS011;64121;48.666;8.114;2023-02-08T04:11:13;11.25;;;6.53;;
75537;SDS011;64121;48.666;8.114;2023-02-08T04:13:38;13.23;;;7.22;;
75537;SDS011;64121;48.666;8.114;2023-02-08T04:16:04;10.73;;;6.28;;
75537;SDS011;64121;48.666;8.114;2023-02-08T04:18:29;12.05;;;6.32;;
75537;SDS011;64121;48.666;8.114;2023-02-08T04:20:56;10.80;;;6.10;;
75537;SDS011;64121;48.666;8.114;2023-02-08T04:23:22;10.90;;;6.90;;
75537;SDS011;64121;48.666;8.114;2023-02-08T04:25:47;11.52;;;6.85;;
75537;SDS011;64121;48.666;8.114;2023-02-08T04:28:12;12.77;;;6.13;;
75537;SDS011;64121;48.666;8.114;2023-02-08T04:30:38;14.57;;;6.90;;
75537;SDS011;64121;48.666;8.114;2023-02-08T04:33:03;11.32;;;7.00;;
75537;SDS011;64121;48.666;8.114;2023-02-08T04:35:28;10.25;;;5.30;;
75537;SDS011;64121;48.666;8.114;2023-02-08T04:37:55;11.27;;;5.80;;
75537;SDS011;64121;48.666;8.114;2023-02-08T04:40:21;11.93;;;6.38;;
75537;SDS011;64121;48.666;8.114;2023-02-08T04:42:46;10.60;;;5.97;;
75537;SDS011;64121;48.666;8.114;2023-02-08T04:45:11;10.70;;;6.95;;
75537;SDS011;64121;48.666;8.114;2023-02-08T04:47:37;11.73;;;6.50;;
75537;SDS011;64121;48.666;8.114;2023-02-08T04:50:02;11.02;;;6.10;;
75537;SDS011;64121;48.666;8.114;2023-02-08T04:52:30;10.95;;;5.88;;
75537;SDS011;64121;48.666;8.114;2023-02-08T04:54:57;12.48;;;6.95;;
75537;SDS011;64121;48.666;8.114;2023-02-08T04:57:22;8.10;;;6.07;;
75537;SDS011;64121;48.666;8.114;2023-02-08T04:59:47;10.25;;;6.43;;
75537;SDS011;64121;48.666;8.114;2023-02-08T05:02:13;10.43;;;6.40;;
75537;SDS011;64121;48.666;8.114;2023-02-08T05:04:38;12.20;;;6.85;;
75537;SDS011;64121;48.666;8.114;2023-02-08T05:07:04;13.25;;;6.40;;
75537;SDS011;64121;48.666;8.114;2023-02-08T05:09:29;11.68;;;6.15;;
75537;SDS011;64121;48.666;8.114;2023-02-08T05:11:56;11.57;;;6.30;;
75537;SDS011;64121;48.666;8.114;2023-02-08T05:14:21;11.13;;;7.28;;
75537;SDS011;64121;48.666;8.114;2023-02-08T05:16:46;9.75;;;5.95;;
75537;SDS011;64121;48.666;8.114;2023-02-08T05:19:12;10.00;;;6.63;;
75537;SDS011;64121;48.666;8.114;2023-02-08T05:21:37;11.73;;;5.95;;
75537;SDS011;64121;48.666;8.114;2023-02-08T05:24:03;9.52;;;6.18;;
75537;SDS011;64121;48.666;8.114;2023-02-08T05:26:28;10.50;;;6.15;;
75537;SDS011;64121;48.666;8.114;2023-02-08T05:28:55;11.48;;;6.18;;
75537;SDS011;64121;48.666;8.114;2023-02-08T05:31:21;11.52;;;6.43;;
75537;SDS011;64121;48.666;8.114;2023-02-08T05:33:48;12.25;;;8.27;;
75537;SDS011;64121;48.666;8.114;2023-02-08T05:36:14;17.35;;;7.20;;
75537;SDS011;64121;48.666;8.114;2023-02-08T05:38:40;9.45;;;5.85;;
75537;SDS011;64121;48.666;8.114;2023-02-08T05:41:05;23.73;;;10.23;;
75537;SDS011;64121;48.666;8.114;2023-02-08T05:43:30;11.45;;;7.35;;
75537;SDS011;64121;48.666;8.114;2023-02-08T05:45:57;16.58;;;8.30;;
75537;SDS011;64121;48.666;8.114;2023-02-08T05:48:22;16.15;;;8.45;;
75537;SDS011;64121;48.666;8.114;2023-02-08T05:50:48;11.88;;;7.43;;
75537;SDS011;64121;48.666;8.114;2023-02-08T05:53:13;9.45;;;6.53;;
75537;SDS011;64121;48.666;8.114;2023-02-08T05:55:38;10.43;;;6.45;;
75537;SDS011;64121;48.666;8.114;2023-02-08T05:58:04;12.90;;;6.28;;
75537;SDS011;64121;48.666;8.114;2023-02-08T06:00:29;10.10;;;6.13;;
75537;SDS011;64121;48.666;8.114;2023-02-08T06:02:57;12.20;;;6.75;;
75537;SDS011;64121;48.666;8.114;2023-02-08T06:05:22;11.43;;;6.95;;
75537;SDS011;64121;48.666;8.114;2023-02-08T06:07:47;11.63;;;7.53;;
75537;SDS011;64121;48.666;8.114;2023-02-08T06:10:13;10.27;;;6.53;;
75537;SDS011;64121;48.666;8.114;2023-02-08T06:12:38;12.00;;;6.80;;
75537;SDS011;64121;48.666;8.114;2023-02-08T06:15:04;13.90;;;8.85;;
75537;SDS011;64121;48.666;8.114;2023-02-08T06:17:30;15.38;;;9.40;;
75537;SDS011;64121;48.666;8.114;2023-02-08T06:19:56;15.68;;;8.85;;
75537;SDS011;64121;48.666;8.114;2023-02-08T06:22:22;14.30;;;7.93;;
75537;SDS011;64121;48.666;8.114;2023-02-08T06:24:47;13.10;;;6.80;;
75537;SDS011;64121;48.666;8.114;2023-02-08T06:27:12;11.35;;;6.80;;
75537;SDS011;64121;48.666;8.114;2023-02-08T06:29:38;12.65;;;7.20;;
75537;SDS011;64121;48.666;8.114;2023-02-08T06:32:03;12.27;;;6.85;;
75537;SDS011;64121;48.666;8.114;2023-02-08T06:34:29;11.35;;;6.72;;
75537;SDS011;64121;48.666;8.114;2023-02-08T06:36:56;14.90;;;6.68;;
75537;SDS011;64121;48.666;8.114;2023-02-08T06:39:21;11.98;;;6.78;;
75537;SDS011;64121;48.666;8.114;2023-02-08T06:41:46;10.90;;;6.75;;
75537;SDS011;64121;48.666;8.114;2023-02-08T06:44:12;8.90;;;6.63;;
75537;SDS011;64121;48.666;8.114;2023-02-08T06:46:37;14.07;;;7.75;;
75537;SDS011;64121;48.666;8.114;2023-02-08T06:49:02;13.40;;;6.68;;
75537;SDS011;64121;48.666;8.114;2023-02-08T06:51:28;14.45;;;7.72;;
75537;SDS011;64121;48.666;8.114;2023-02-08T06:53:55;12.23;;;8.35;;
75537;SDS011;64121;48.666;8.114;2023-02-08T06:56:20;11.32;;;7.00;;
75537;SDS011;64121;48.666;8.114;2023-02-08T06:58:45;13.68;;;7.35;;
75537;SDS011;64121;48.666;8.114;2023-02-08T07:01:11;15.88;;;8.20;;
75537;SDS011;64121;48.666;8.114;2023-02-08T07:03:37;17.25;;;7.95;;
75537;SDS011;64121;48.666;8.114;2023-02-08T07:06:02;14.15;;;7.80;;
75537;SDS011;64121;48.666;8.114;2023-02-08T07:08:27;18.40;;;9.80;;
75537;SDS011;64121;48.666;8.114;2023-02-08T07:10:54;14.90;;;8.68;;
75537;SDS011;64121;48.666;8.114;2023-02-08T07:13:20;18.42;;;9.65;;
75537;SDS011;64121;48.666;8.114;2023-02-08T07:15:45;13.13;;;8.05;;
75537;SDS011;64121;48.666;8.114;2023-02-08T07:18:10;14.48;;;9.10;;
75537;SDS011;64121;48.666;8.114;2023-02-08T07:20:36;14.57;;;8.23;;
75537;SDS011;64121;48.666;8.114;2023-02-08T07:23:01;15.57;;;8.80;;
75537;SDS011;64121;48.666;8.114;2023-02-08T07:25:26;13.30;;;7.82;;
75537;SDS011;64121;48.666;8.114;2023-02-08T07:27:53;10.50;;;7.50;;
75537;SDS011;64121;48.666;8.114;2023-02-08T07:30:19;13.23;;;8.18;;
75537;SDS011;64121;48.666;8.114;2023-02-08T07:32:44;13.95;;;8.20;;
75537;SDS011;64121;48.666;8.114;2023-02-08T07:35:09;12.02;;;7.75;;
75537;SDS011;64121;48.666;8.114;2023-02-08T07:37:35;12.27;;;7.90;;
75537;SDS011;64121;48.666;8.114;2023-02-08T07:40:00;12.23;;;7.47;;
75537;SDS011;64121;48.666;8.114;2023-02-08T07:42:26;17.17;;;7.68;;
75537;SDS011;64121;48.666;8.114;2023-02-08T07:44:52;11.02;;;7.10;;
75537;SDS011;64121;48.666;8.114;2023-02-08T07:47:18;17.27;;;7.32;;
75537;SDS011;64121;48.666;8.114;2023-02-08T07:49:43;11.13;;;7.00;;
75537;SDS011;64121;48.666;8.114;2023-02-08T07:52:08;10.90;;;7.35;;
75537;SDS011;64121;48.666;8.114;2023-02-08T07:54:34;13.55;;;8.00;;
75537;SDS011;64121;48.666;8.114;2023-02-08T07:56:59;13.48;;;8.35;;
75537;SDS011;64121;48.666;8.114;2023-02-08T07:59:25;13.15;;;7.70;;
75537;SDS011;64121;48.666;8.114;2023-02-08T08:01:51;14.82;;;7.95;;
75537;SDS011;64121;48.666;8.114;2023-02-08T08:04:17;16.20;;;10.32;;
75537;SDS011;64121;48.666;8.114;2023-02-08T08:06:42;18.08;;;9.35;;
75537;SDS011;64121;48.666;8.114;2023-02-08T08:09:07;15.80;;;8.77;;
75537;SDS011;64121;48.666;8.114;2023-02-08T08:11:33;15.40;;;8.82;;
75537;SDS011;64121;48.666;8.114;2023-02-08T08:13:58;13.32;;;8.23;;
75537;SDS011;64121;48.666;8.114;2023-02-08T08:16:23;18.00;;;9.07;;
75537;SDS011;64121;48.666;8.114;2023-02-08T08:18:50;20.58;;;9.70;;
75537;SDS011;64121;48.666;8.114;2023-02-08T08:21:15;13.52;;;8.48;;
75537;SDS011;64121;48.666;8.114;2023-02-08T08:23:41;14.55;;;9.02;;
75537;SDS011;64121;48.666;8.114;2023-02-08T08:26:07;14.63;;;9.23;;
75537;SDS011;64121;48.666;8.114;2023-02-08T08:28:34;15.45;;;8.40;;
75537;SDS011;64121;48.666;8.114;2023-02-08T08:31:00;16.70;;;8.77;;
75537;SDS011;64121;48.666;8.114;2023-02-08T08:33:25;14.70;;;8.55;;
75537;SDS011;64121;48.666;8.114;2023-02-08T08:35:52;13.93;;;8.55;;
75537;SDS011;64121;48.666;8.114;2023-02-08T08:38:17;15.70;;;9.52;;
75537;SDS011;64121;48.666;8.114;2023-02-08T08:40:43;17.20;;;9.80;;
75537;SDS011;64121;48.666;8.114;2023-02-08T08:43:08;15.93;;;8.95;;
75537;SDS011;64121;48.666;8.114;2023-02-08T08:45:33;16.25;;;9.15;;
75537;SDS011;64121;48.666;8.114;2023-02-08T08:47:59;15.63;;;9.25;;
75537;SDS011;64121;48.666;8.114;2023-02-08T08:50:24;16.85;;;9.63;;
75537;SDS011;64121;48.666;8.114;2023-02-08T08:52:51;16.10;;;9.15;;
75537;SDS011;64121;48.666;8.114;2023-02-08T08:55:16;25.65;;;16.52;;
75537;SDS011;64121;48.666;8.114;2023-02-08T08:57:42;29.02;;;18.23;;
75537;SDS011;64121;48.666;8.114;2023-02-08T09:00:07;16.52;;;10.52;;
75537;SDS011;64121;48.666;8.114;2023-02-08T09:02:34;15.68;;;9.30;;
75537;SDS011;64121;48.666;8.114;2023-02-08T09:04:59;21.35;;;13.90;;
75537;SDS011;64121;48.666;8.114;2023-02-08T09:07:25;17.98;;;12.00;;
75537;SDS011;64121;48.666;8.114;2023-02-08T09:09:51;13.68;;;8.63;;
75537;SDS011;64121;48.666;8.114;2023-02-08T09:12:17;12.20;;;8.40;;
75537;SDS011;64121;48.666;8.114;2023-02-08T09:14:42;15.65;;;8.18;;
75537;SDS011;64121;48.666;8.114;2023-02-08T09:17:07;18.58;;;9.38;;
75537;SDS011;64121;48.666;8.114;2023-02-08T09:19:33;14.80;;;7.53;;
75537;SDS011;64121;48.666;8.114;2023-02-08T09:21:58;13.90;;;9.15;;
75537;SDS011;64121;48.666;8.114;2023-02-08T09:24:23;16.08;;;8.88;;
75537;SDS011;64121;48.666;8.114;2023-02-08T09:26:50;10.95;;;7.30;;
75537;SDS011;64121;48.666;8.114;2023-02-08T09:29:16;16.13;;;9.02;;
75537;SDS011;64121;48.666;8.114;2023-02-08T09:31:41;12.93;;;8.48;;
75537;SDS011;64121;48.666;8.114;2023-02-08T09:34:07;11.65;;;8.43;;
75537;SDS011;64121;48.666;8.114;2023-02-08T09:36:33;19.35;;;9.50;;
75537;SDS011;64121;48.666;8.114;2023-02-08T09:39:02;13.82;;;7.90;;
75537;SDS011;64121;48.666;8.114;2023-02-08T09:41:37;14.05;;;8.10;;
75537;SDS011;64121;48.666;8.114;2023-02-08T09:44:16;13.48;;;8.10;;
75537;SDS011;64121;48.666;8.114;2023-02-08T09:46:50;11.70;;;7.22;;
75537;SDS011;64121;48.666;8.114;2023-02-08T09:49:21;11.87;;;7.53;;
75537;SDS011;64121;48.666;8.114;2023-02-08T09:51:52;12.55;;;7.50;;
75537;SDS011;64121;48.666;8.114;2023-02-08T09:54:21;15.18;;;7.68;;
75537;SDS011;64121;48.666;8.114;2023-02-08T09:56:49;12.80;;;8.25;;
75537;SDS011;64121;48.666;8.114;2023-02-08T09:59:20;16.23;;;8.20;;
75537;SDS011;64121;48.666;8.114;2023-02-08T10:01:48;13.60;;;7.93;;
75537;SDS011;64121;48.666;8.114;2023-02-08T10:04:18;11.70;;;7.47;;
75537;SDS011;64121;48.666;8.114;2023-02-08T10:06:49;13.65;;;8.18;;
75537;SDS011;64121;48.666;8.114;2023-02-08T10:09:15;11.60;;;7.47;;
75537;SDS011;64121;48.666;8.114;2023-02-08T10:11:49;12.57;;;7.72;;
75537;SDS011;64121;48.666;8.114;2023-02-08T10:14:31;12.95;;;7.32;;
75537;SDS011;64121;48.666;8.114;2023-02-08T10:17:22;15.23;;;7.50;;
75537;SDS011;64121;48.666;8.114;2023-02-08T10:20:02;10.88;;;7.50;;
75537;SDS011;64121;48.666;8.114;2023-02-08T10:22:39;13.20;;;7.43;;
75537;SDS011;64121;48.666;8.114;2023-02-08T10:25:19;12.90;;;7.50;;
75537;SDS011;64121;48.666;8.114;2023-02-08T10:28:01;13.13;;;7.50;;
75537;SDS011;64121;48.666;8.114;2023-02-08T10:30:42;14.10;;;7.65;;
75537;SDS011;64121;48.666;8.114;2023-02-08T10:35:43;12.40;;;7.47;;
75537;SDS011;64121;48.666;8.114;2023-02-08T10:40:58;11.45;;;8.05;;
75537;SDS011;64121;48.666;8.114;2023-02-08T10:43:28;12.93;;;7.45;;
75537;SDS011;64121;48.666;8.114;2023-02-08T10:46:03;12.13;;;7.57;;
75537;SDS011;64121;48.666;8.114;2023-02-08T10:48:40;14.27;;;7.55;;
75537;SDS011;64121;48.666;8.114;2023-02-08T10:51:17;12.70;;;7.50;;
75537;SDS011;64121;48.666;8.114;2023-02-08T10:53:44;13.40;;;7.68;;
75537;SDS011;64121;48.666;8.114;2023-02-08T10:56:14;13.98;;;8.43;;
75537;SDS011;64121;48.666;8.114;2023-02-08T10:58:52;16.23;;;8.55;;
75537;SDS011;64121;48.666;8.114;2023-02-08T11:01:19;14.88;;;8.30;;
75537;SDS011;64121;48.666;8.114;2023-02-08T11:03:59;14.02;;;8.00;;
75537;SDS011;64121;48.666;8.114;2023-02-08T11:06:25;10.00;;;6.60;;
75537;SDS011;64121;48.666;8.114;2023-02-08T11:08:53;12.52;;;7.70;;
75537;SDS011;64121;48.666;8.114;2023-02-08T11:11:19;9.70;;;7.00;;
75537;SDS011;64121;48.666;8.114;2023-02-08T11:13:45;14.68;;;8.07;;
75537;SDS011;64121;48.666;8.114;2023-02-08T11:16:19;10.00;;;7.07;;
75537;SDS011;64121;48.666;8.114;2023-02-08T11:18:47;11.80;;;7.22;;
75537;SDS011;64121;48.666;8.114;2023-02-08T11:21:20;11.52;;;6.60;;
75537;SDS011;64121;48.666;8.114;2023-02-08T11:23:48;11.77;;;8.10;;
75537;SDS011;64121;48.666;8.114;2023-02-08T11:26:16;11.75;;;8.05;;
75537;SDS011;64121;48.666;8.114;2023-02-08T11:28:57;13.15;;;7.82;;
75537;SDS011;64121;48.666;8.114;2023-02-08T11:31:25;10.70;;;6.88;;
75537;SDS011;64121;48.666;8.114;2023-02-08T11:33:58;10.88;;;7.32;;
75537;SDS011;64121;48.666;8.114;2023-02-08T11:36:25;12.60;;;7.20;;
75537;SDS011;64121;48.666;8.114;2023-02-08T11:38:51;10.73;;;7.18;;
75537;SDS011;64121;48.666;8.114;2023-02-08T11:41:18;11.55;;;6.78;;
75537;SDS011;64121;48.666;8.114;2023-02-08T11:43:49;9.98;;;6.78;;
75537;SDS011;64121;48.666;8.114;2023-02-08T11:46:24;10.43;;;6.28;;
75537;SDS011;64121;48.666;8.114;2023-02-08T11:48:52;11.38;;;6.82;;
75537;SDS011;64121;48.666;8.114;2023-02-08T11:51:25;14.20;;;8.10;;
75537;SDS011;64121;48.666;8.114;2023-02-08T11:53:52;11.85;;;6.88;;
75537;SDS011;64121;48.666;8.114;2023-02-08T11:56:20;12.98;;;7.10;;
75537;SDS011;64121;48.666;8.114;2023-02-08T11:59:00;9.48;;;6.18;;
75537;SDS011;64121;48.666;8.114;2023-02-08T12:01:29;11.55;;;7.43;;
75537;SDS011;64121;48.666;8.114;2023-02-08T12:03:56;11.27;;;7.40;;
75537;SDS011;64121;48.666;8.114;2023-02-08T12:06:27;12.73;;;7.28;;
75537;SDS011;64121;48.666;8.114;2023-02-08T12:09:13;10.30;;;6.40;;
75537;SDS011;64121;48.666;8.114;2023-02-08T12:11:53;11.18;;;7.25;;
75537;SDS011;64121;48.666;8.114;2023-02-08T12:14:32;11.35;;;7.57;;
75537;SDS011;64121;48.666;8.114;2023-02-08T12:17:21;14.68;;;9.13;;
75537;SDS011;64121;48.666;8.114;2023-02-08T12:20:05;11.52;;;7.25;;
75537;SDS011;64121;48.666;8.114;2023-02-08T12:22:40;13.13;;;7.15;;
75537;SDS011;64121;48.666;8.114;2023-02-08T12:25:18;10.60;;;6.45;;
75537;SDS011;64121;48.666;8.114;2023-02-08T12:27:52;10.88;;;6.80;;
75537;SDS011;64121;48.666;8.114;2023-02-08T12:30:24;9.73;;;6.82;;
75537;SDS011;64121;48.666;8.114;2023-02-08T12:33:02;12.85;;;6.82;;
75537;SDS011;64121;48.666;8.114;2023-02-08T12:35:58;11.57;;;5.97;;
75537;SDS011;64121;48.666;8.114;2023-02-08T12:38:43;10.88;;;6.90;;
75537;SDS011;64121;48.666;8.114;2023-02-08T12:41:26;12.90;;;7.38;;
75537;SDS011;64121;48.666;8.114;2023-02-08T12:43:57;10.20;;;6.80;;
75537;SDS011;64121;48.666;8.114;2023-02-08T12:46:37;10.93;;;6.45;;
75537;SDS011;64121;48.666;8.114;2023-02-08T12:49:25;12.18;;;5.97;;
75537;SDS011;64121;48.666;8.114;2023-02-08T12:52:02;9.35;;;6.28;;
75537;SDS011;64121;48.666;8.114;2023-02-08T12:54:39;9.88;;;6.15;;
75537;SDS011;64121;48.666;8.114;2023-02-08T12:57:09;11.27;;;7.18;;
75537;SDS011;64121;48.666;8.114;2023-02-08T12:59:39;11.60;;;6.72;;
75537;SDS011;64121;48.666;8.114;2023-02-08T13:02:10;11.98;;;6.85;;
75537;SDS011;64121;48.666;8.114;2023-02-08T13:04:44;10.27;;;6.55;;
75537;SDS011;64121;48.666;8.114;2023-02-08T13:07:12;13.43;;;7.22;;
75537;SDS011;64121;48.666;8.114;2023-02-08T13:09:41;11.77;;;5.72;;
75537;SDS011;64121;48.666;8.114;2023-02-08T13:12:13;10.20;;;6.47;;
75537;SDS011;64121;48.666;8.114;2023-02-08T13:14:42;11.43;;;7.10;;
75537;SDS011;64121;48.666;8.114;2023-02-08T13:17:11;12.15;;;6.70;;
75537;SDS011;64121;48.666;8.114;2023-02-08T13:19:45;14.13;;;7.13;;
75537;SDS011;64121;48.666;8.114;2023-02-08T13:22:15;6.72;;;4.28;;
75537;SDS011;64121;48.666;8.114;2023-02-08T13:24:42;13.05;;;7.15;;
75537;SDS011;64121;48.666;8.114;2023-02-08T13:27:09;11.50;;;6.82;;
75537;SDS011;64121;48.666;8.114;2023-02-08T13:29:40;12.00;;;7.50;;
75537;SDS011;64121;48.666;8.114;2023-02-08T13:32:09;12.35;;;6.45;;
75537;SDS011;64121;48.666;8.114;2023-02-08T13:34:44;10.88;;;6.93;;
75537;SDS011;64121;48.666;8.114;2023-02-08T13:37:17;9.52;;;6.15;;
75537;SDS011;64121;48.666;8.114;2023-02-08T13:39:44;13.10;;;6.38;;
75537;SDS011;64121;48.666;8.114;2023-02-08T13:42:17;12.75;;;6.85;;
75537;SDS011;64121;48.666;8.114;2023-02-08T13:44:47;9.18;;;6.53;;
75537;SDS011;64121;48.666;8.114;2023-02-08T13:47:21;10.85;;;6.05;;
75537;SDS011;64121;48.666;8.114;2023-02-08T14:01:19;10.90;;;6.18;;
75537;SDS011;64121;48.666;8.114;2023-02-08T14:06:52;11.57;;;6.72;;
75537;SDS011;64121;48.666;8.114;2023-02-08T14:09:22;8.73;;;5.70;;
75537;SDS011;64121;48.666;8.114;2023-02-08T14:11:56;9.27;;;5.93;;
75537;SDS011;64121;48.666;8.114;2023-02-08T14:14:26;8.18;;;5.57;;
75537;SDS011;64121;48.666;8.114;2023-02-08T14:19:42;8.70;;;5.50;;
75537;SDS011;64121;48.666;8.114;2023-02-08T14:22:14;13.88;;;6.65;;
75537;SDS011;64121;48.666;8.114;2023-02-08T14:24:42;9.00;;;5.90;;
75537;SDS011;64121;48.666;8.114;2023-02-08T14:27:10;11.13;;;6.72;;
75537;SDS011;64121;48.666;8.114;2023-02-08T14:29:53;14.40;;;6.20;;
75537;SDS011;64121;48.666;8.114;2023-02-08T14:32:21;12.07;;;5.88;;
75537;SDS011;64121;48.666;8.114;2023-02-08T14:34:47;13.85;;;8.55;;
75537;SDS011;64121;48.666;8.114;2023-02-08T14:37:26;8.27;;;6.30;;
75537;SDS011;64121;48.666;8.114;2023-02-08T14:42:53;8.45;;;4.18;;
75537;SDS011;64121;48.666;8.114;2023-02-08T14:45:25;6.10;;;3.60;;
75537;SDS011;64121;48.666;8.114;2023-02-08T14:47:56;5.97;;;3.20;;
75537;SDS011;64121;48.666;8.114;2023-02-08T14:50:34;5.45;;;2.90;;
75537;SDS011;64121;48.666;8.114;2023-02-08T14:53:12;7.88;;;4.40;;
75537;SDS011;64121;48.666;8.114;2023-02-08T14:55:44;8.15;;;5.07;;
75537;SDS011;64121;48.666;8.114;2023-02-08T14:58:13;10.13;;;5.78;;
75537;SDS011;64121;48.666;8.114;2023-02-08T15:00:46;12.05;;;5.97;;
75537;SDS011;64121;48.666;8.114;2023-02-08T15:03:15;12.50;;;6.95;;
75537;SDS011;64121;48.666;8.114;2023-02-08T15:05:43;10.30;;;5.82;;
75537;SDS011;64121;48.666;8.114;2023-02-08T15:08:20;12.02;;;7.40;;
75537;SDS011;64121;48.666;8.114;2023-02-08T15:10:45;11.32;;;6.45;;
75537;SDS011;64121;48.666;8.114;2023-02-08T15:13:22;11.35;;;6.93;;
75537;SDS011;64121;48.666;8.114;2023-02-08T15:15:49;10.52;;;5.82;;
75537;SDS011;64121;48.666;8.114;2023-02-08T15:18:18;9.57;;;5.38;;
75537;SDS011;64121;48.666;8.114;2023-02-08T15:20:52;9.45;;;5.60;;